Terminal Aerodrome Forecast
Issued by NWS

Home | Current Version | Previous Version | Text Only | Print | Product List | Glossary On
Versions: 1 2 3 4 5 6 7 8 9 10 11 12 13 14
000
FTUS42 KILM 251700
TAFCRE
TAF
KCRE 251721Z 2518/2618 18009KT P6SM SKC
     FM260000 20006KT P6SM FEW120 FEW250
     FM260900 22007KT P6SM SCT035 BKN090
     FM261100 25009KT P6SM BKN030=

USA.gov is the U.S. government's official web portal to all federal, state and local government web resources and services.